Airport View

Enter AWOS ICAO identifier for current METAR.

ex. KFNL

KSSC 101456Z VRB01KT 10SM FEW250 31/23 A3010 RMK AO2A SLP186 WND DATA ESTMD T03050227 54000 $

10 Aug 2020 15:11

Other Area AWOS: KSMS - KMMT - KCDN - KCUB

TAF KSSC 101500Z 1015/1121 22006KT 9999 FEW030 SCT160 QNH3008INS BECMG 1019/1020 23009KT 9999 VCTS SCT040CB BKN060 QNH3002INS TEMPO 1021/1024 20015G25KT 4800 -TSRA BKN040CB BECMG 1100/1101 20009KT 9999 NSW SCT040 QNH2995INS BECMG 1109/1110 16006KT 8000 BR SCT010 BKN030 QNH2995INS BECMG 1112/1113 20006KT 9999 NSW SCT020 BKN050 QNH2998INS BECMG 1120/1121 20009KT 9999 VCTS SCT040CB BKN060 QNH2997INS TX34/1020Z TN24/1110Z